createdAt,value
2023-05-08T00:01:41.869Z,5.40
2023-05-08T00:04:12.693Z,6.53
2023-05-08T00:06:43.552Z,5.80
2023-05-08T00:09:14.342Z,5.13
2023-05-08T00:11:46.039Z,4.47
2023-05-08T00:14:16.657Z,11.80
2023-05-08T00:16:47.361Z,5.08
2023-05-08T00:19:18.144Z,3.37
2023-05-08T00:21:48.920Z,3.73
2023-05-08T00:24:19.599Z,3.20
2023-05-08T00:26:50.442Z,4.60
2023-05-08T00:29:21.028Z,3.07
2023-05-08T00:31:51.822Z,5.20
2023-05-08T00:34:22.483Z,4.00
2023-05-08T00:36:53.149Z,2.83
2023-05-08T00:39:23.773Z,2.67
2023-05-08T00:41:54.502Z,4.03
2023-05-08T00:44:25.265Z,2.30
2023-05-08T00:46:55.990Z,2.63
2023-05-08T00:49:27.184Z,5.93
2023-05-08T00:51:58.571Z,2.37
2023-05-08T00:54:29.753Z,4.53
2023-05-08T00:57:01.795Z,2.50
2023-05-08T00:59:32.958Z,5.07
2023-05-08T01:02:04.061Z,2.27
2023-05-08T01:04:36.460Z,6.80
2023-05-08T01:07:07.158Z,4.17
2023-05-08T01:09:37.897Z,2.57
2023-05-08T01:12:14.319Z,4.13
2023-05-08T01:14:52.060Z,1.90
2023-05-08T01:17:27.025Z,1.87
2023-05-08T01:20:07.694Z,2.50
2023-05-08T01:22:51.516Z,2.90
2023-05-08T01:26:08.228Z,2.40
2023-05-08T01:29:07.560Z,5.97
2023-05-08T01:31:46.863Z,1.40
2023-05-08T01:34:20.735Z,1.40
2023-05-08T01:36:55.292Z,6.73
2023-05-08T01:39:30.462Z,1.30
2023-05-08T01:42:06.473Z,1.73
2023-05-08T01:44:40.604Z,1.43
2023-05-08T01:47:13.127Z,2.80
2023-05-08T01:49:46.482Z,2.90
2023-05-08T01:52:21.541Z,1.60
2023-05-08T01:54:55.923Z,2.30
2023-05-08T01:57:29.124Z,7.80
2023-05-08T02:00:02.524Z,1.50
2023-05-08T02:02:35.810Z,3.40
2023-05-08T02:05:07.719Z,1.93
2023-05-08T02:07:39.225Z,2.33
2023-05-08T02:10:13.620Z,2.33
2023-05-08T02:12:46.950Z,3.67
2023-05-08T02:15:19.759Z,8.33
2023-05-08T02:17:52.297Z,2.03
2023-05-08T02:20:23.880Z,2.50
2023-05-08T02:22:54.724Z,3.67
2023-05-08T02:25:27.128Z,2.83
2023-05-08T02:27:58.652Z,4.30
2023-05-08T02:30:30.809Z,3.20
2023-05-08T02:33:02.637Z,4.20
2023-05-08T02:35:34.019Z,7.80
2023-05-08T02:38:08.342Z,3.37
2023-05-08T02:40:42.772Z,4.00
2023-05-08T02:43:13.547Z,3.10
2023-05-08T02:45:47.435Z,5.73
2023-05-08T02:48:23.018Z,4.80
2023-05-08T02:53:39.108Z,3.87
2023-05-08T02:56:13.633Z,3.40
2023-05-08T02:58:47.184Z,4.13
2023-05-08T03:01:20.900Z,4.40
2023-05-08T03:03:56.823Z,3.13
2023-05-08T03:06:30.731Z,4.63
2023-05-08T03:09:04.608Z,5.57
2023-05-08T03:11:40.232Z,3.23
2023-05-08T03:14:15.516Z,3.83
2023-05-08T03:16:49.180Z,4.57
2023-05-08T03:19:23.443Z,4.83
2023-05-08T03:21:57.728Z,7.55
2023-05-08T03:24:29.405Z,7.03
2023-05-08T03:27:01.489Z,7.53
2023-05-08T03:29:34.934Z,8.23
2023-05-08T03:32:07.598Z,11.33
2023-05-08T03:34:39.485Z,7.60
2023-05-08T03:37:10.329Z,7.53
2023-05-08T03:39:41.009Z,5.37
2023-05-08T03:42:15.937Z,13.63
2023-05-08T03:44:46.669Z,5.67
2023-05-08T03:47:18.504Z,8.57
2023-05-08T03:49:51.476Z,11.50
2023-05-08T03:52:22.214Z,9.13
2023-05-08T03:54:52.847Z,13.77
2023-05-08T03:57:24.528Z,12.07
2023-05-08T03:59:58.350Z,8.43
2023-05-08T04:02:32.541Z,11.67
2023-05-08T04:05:08.032Z,10.73
2023-05-08T04:07:41.879Z,12.43
2023-05-08T04:10:16.762Z,7.80
2023-05-08T04:12:52.222Z,10.70
2023-05-08T04:15:25.794Z,8.60
2023-05-08T04:18:00.123Z,11.03
2023-05-08T04:20:33.243Z,10.43
2023-05-08T04:23:05.396Z,11.40
2023-05-08T04:25:38.286Z,11.57
2023-05-08T04:28:09.406Z,11.27
2023-05-08T04:30:40.618Z,9.40
2023-05-08T04:33:12.432Z,9.30
2023-05-08T04:35:43.116Z,14.17
2023-05-08T04:40:53.023Z,12.13
2023-05-08T04:43:23.824Z,11.53
2023-05-08T04:45:54.450Z,11.70
2023-05-08T04:48:25.257Z,15.50
2023-05-08T04:50:55.996Z,11.27
2023-05-08T04:53:27.957Z,12.40
2023-05-08T04:55:59.480Z,11.97
2023-05-08T04:58:30.283Z,8.70
2023-05-08T05:01:04.068Z,10.67
2023-05-08T05:03:34.745Z,9.60
2023-05-08T05:06:05.655Z,10.60
2023-05-08T05:08:36.251Z,7.73
2023-05-08T05:11:07.058Z,8.37
2023-05-08T05:13:37.679Z,7.53
2023-05-08T05:16:09.642Z,8.07
2023-05-08T05:18:40.276Z,7.07
2023-05-08T05:21:11.634Z,6.63
2023-05-08T05:23:42.369Z,7.63
2023-05-08T05:26:13.412Z,6.87
2023-05-08T05:28:44.819Z,11.20
2023-05-08T05:31:15.536Z,10.43
2023-05-08T05:33:46.901Z,9.23
2023-05-08T05:36:18.214Z,6.87
2023-05-08T05:38:48.894Z,6.67
2023-05-08T05:41:19.740Z,6.87
2023-05-08T05:43:50.553Z,7.50
2023-05-08T05:46:21.256Z,7.53
2023-05-08T05:48:52.013Z,8.00
2023-05-08T05:51:23.058Z,8.07
2023-05-08T05:53:53.851Z,5.53
2023-05-08T05:56:24.519Z,5.70
2023-05-08T05:58:55.274Z,10.82
2023-05-08T06:01:25.935Z,7.10
2023-05-08T06:03:56.789Z,7.13
2023-05-08T06:06:27.874Z,7.17
2023-05-08T06:08:58.532Z,6.40
2023-05-08T06:11:29.344Z,8.50
2023-05-08T06:14:00.140Z,8.10
2023-05-08T06:16:32.357Z,9.23
2023-05-08T06:21:42.949Z,6.00
2023-05-08T06:24:13.958Z,8.27
2023-05-08T06:26:44.592Z,7.43
2023-05-08T06:29:15.238Z,5.80
2023-05-08T06:31:45.937Z,7.07
2023-05-08T06:34:16.681Z,7.60
2023-05-08T06:36:47.295Z,7.00
2023-05-08T06:39:18.651Z,7.53
2023-05-08T06:41:51.051Z,7.00
2023-05-08T06:44:21.893Z,8.33
2023-05-08T06:46:52.703Z,9.23
2023-05-08T06:49:24.006Z,9.60
2023-05-08T06:51:57.262Z,7.67
2023-05-08T06:54:27.267Z,8.67
2023-05-08T06:56:57.930Z,6.90
2023-05-08T06:59:28.665Z,7.37
2023-05-08T07:01:59.582Z,7.80
2023-05-08T07:04:32.108Z,7.43
2023-05-08T07:07:02.590Z,6.70
2023-05-08T07:09:33.256Z,8.13
2023-05-08T07:12:04.017Z,10.10
2023-05-08T07:14:34.766Z,7.70
2023-05-08T07:17:07.796Z,8.40
2023-05-08T07:19:39.454Z,10.40
2023-05-08T07:22:11.081Z,7.50
2023-05-08T07:24:41.811Z,15.23
2023-05-08T07:27:14.069Z,7.63
2023-05-08T07:29:44.787Z,5.83
2023-05-08T07:32:16.250Z,7.03
2023-05-08T07:34:46.990Z,8.77
2023-05-08T07:37:17.671Z,10.40
2023-05-08T07:39:48.346Z,7.23
2023-05-08T07:42:19.154Z,7.87
2023-05-08T07:47:29.456Z,8.17
2023-05-08T07:50:00.195Z,8.13
2023-05-08T07:52:30.969Z,14.30
2023-05-08T07:55:01.666Z,12.33
2023-05-08T07:57:38.669Z,9.13
2023-05-08T08:00:12.546Z,8.13
2023-05-08T08:02:43.475Z,8.67
2023-05-08T08:05:14.756Z,9.77
2023-05-08T08:07:45.728Z,13.07
2023-05-08T08:10:16.738Z,10.23
2023-05-08T08:12:47.417Z,6.77
2023-05-08T08:15:18.219Z,7.20
2023-05-08T08:17:49.434Z,5.77
2023-05-08T08:20:20.436Z,7.03
2023-05-08T08:22:51.102Z,9.33
2023-05-08T08:25:22.063Z,3.37
2023-05-08T08:27:52.816Z,4.73
2023-05-08T08:30:23.805Z,5.23
2023-05-08T08:32:54.586Z,3.30
2023-05-08T08:35:27.209Z,6.37
2023-05-08T08:37:57.877Z,2.87
2023-05-08T08:40:29.417Z,5.23
2023-05-08T08:43:00.678Z,2.30
2023-05-08T08:45:32.436Z,3.50
2023-05-08T08:48:05.591Z,2.87
2023-05-08T08:50:37.220Z,3.03
2023-05-08T08:53:11.526Z,4.67
2023-05-08T08:55:45.937Z,1.83
2023-05-08T08:58:21.515Z,2.30
2023-05-08T09:00:54.103Z,5.28
2023-05-08T09:03:25.039Z,1.60
2023-05-08T09:05:56.902Z,2.23
2023-05-08T09:08:27.562Z,2.53
2023-05-08T09:10:58.445Z,11.03
2023-05-08T09:13:30.027Z,2.80
2023-05-08T09:16:01.857Z,3.77
2023-05-08T09:18:33.014Z,2.33
2023-05-08T09:21:04.244Z,3.57
2023-05-08T09:23:36.463Z,3.23
2023-05-08T09:26:07.400Z,3.40
2023-05-08T09:28:38.096Z,4.97
2023-05-08T09:31:08.810Z,2.87
2023-05-08T09:33:42.318Z,1.93
2023-05-08T09:36:27.932Z,2.60
2023-05-08T09:38:58.639Z,5.37
2023-05-08T09:41:29.299Z,3.00
2023-05-08T09:44:07.856Z,3.57
2023-05-08T09:46:38.756Z,3.80
2023-05-08T09:49:11.100Z,4.30
2023-05-08T09:51:44.764Z,3.83
2023-05-08T09:54:21.446Z,2.20
2023-05-08T09:56:52.174Z,3.57
2023-05-08T09:59:27.510Z,1.33
2023-05-08T10:01:58.799Z,3.03
2023-05-08T10:04:36.492Z,1.60
2023-05-08T10:07:07.289Z,5.10
2023-05-08T10:09:47.528Z,2.53
2023-05-08T10:12:10.996Z,3.23
2023-05-08T10:14:43.622Z,2.93
2023-05-08T10:17:14.207Z,6.10
2023-05-08T10:19:47.394Z,1.67
2023-05-08T10:22:19.830Z,2.97
2023-05-08T10:24:53.782Z,6.97
2023-05-08T10:27:28.209Z,8.50
2023-05-08T10:30:01.185Z,3.77
2023-05-08T10:32:35.565Z,1.97
2023-05-08T10:35:09.183Z,5.63
2023-05-08T10:37:42.690Z,1.37
2023-05-08T10:40:16.067Z,1.80
2023-05-08T10:42:48.320Z,2.33
2023-05-08T10:45:19.261Z,3.50
2023-05-08T10:50:42.270Z,1.50
2023-05-08T10:53:17.562Z,1.60
2023-05-08T10:55:50.886Z,2.77
2023-05-08T10:58:33.952Z,3.40
2023-05-08T11:01:20.356Z,2.43
2023-05-08T11:03:52.242Z,1.50
2023-05-08T11:06:45.413Z,1.43
2023-05-08T11:09:24.229Z,4.83
2023-05-08T11:12:07.837Z,2.23
2023-05-08T11:14:42.348Z,4.73
2023-05-08T11:17:13.740Z,4.43
2023-05-08T11:19:56.204Z,1.63
2023-05-08T11:22:33.150Z,1.80
2023-05-08T11:25:06.441Z,4.53
2023-05-08T11:28:14.435Z,9.60
2023-05-08T11:30:47.170Z,16.02
2023-05-08T11:33:19.080Z,6.57
2023-05-08T11:35:52.507Z,4.17
2023-05-08T11:38:26.155Z,2.90
2023-05-08T11:41:05.113Z,1.80
2023-05-08T11:43:53.697Z,2.43
2023-05-08T11:46:24.446Z,2.40
2023-05-08T11:49:01.979Z,3.53
2023-05-08T11:51:34.742Z,2.60
2023-05-08T11:54:06.825Z,3.90
2023-05-08T11:56:38.935Z,1.87
2023-05-08T11:59:10.640Z,1.80
2023-05-08T12:01:41.483Z,2.40
2023-05-08T12:04:13.866Z,1.60
2023-05-08T12:06:45.257Z,3.10
2023-05-08T12:09:17.569Z,2.23
2023-05-08T12:11:48.220Z,3.33
2023-05-08T12:14:20.218Z,9.93
2023-05-08T12:16:52.206Z,2.03
2023-05-08T12:19:23.159Z,4.43
2023-05-08T12:21:53.876Z,3.77
2023-05-08T12:24:25.627Z,2.73
2023-05-08T12:26:57.522Z,3.07
2023-05-08T12:29:28.268Z,1.97
2023-05-08T12:31:59.571Z,1.83
2023-05-08T12:34:30.683Z,3.10
2023-05-08T12:37:07.663Z,3.77
2023-05-08T12:39:40.634Z,10.68
2023-05-08T12:42:11.514Z,3.53
2023-05-08T12:44:42.278Z,1.90
2023-05-08T12:47:14.048Z,2.87
2023-05-08T12:49:44.981Z,2.40
2023-05-08T12:52:18.234Z,1.60
2023-05-08T12:54:51.474Z,2.40
2023-05-08T12:57:23.039Z,11.18
2023-05-08T12:59:55.737Z,2.67
2023-05-08T13:02:27.486Z,1.60
2023-05-08T13:04:58.544Z,1.57
2023-05-08T13:07:33.835Z,2.23
2023-05-08T13:10:08.367Z,3.20
2023-05-08T13:12:39.232Z,1.97
2023-05-08T13:15:12.836Z,3.40
2023-05-08T13:17:43.847Z,3.60
2023-05-08T13:20:15.189Z,1.77
2023-05-08T13:22:46.224Z,3.43
2023-05-08T13:25:17.274Z,2.63
2023-05-08T13:27:47.985Z,3.77
2023-05-08T13:30:19.346Z,1.63
2023-05-08T13:32:50.076Z,3.37
2023-05-08T13:35:23.272Z,2.13
2023-05-08T13:37:55.385Z,2.57
2023-05-08T13:40:27.042Z,1.73
2023-05-08T13:42:59.509Z,3.27
2023-05-08T13:45:30.814Z,2.13
2023-05-08T13:48:01.576Z,3.57
2023-05-08T13:50:32.613Z,1.70
2023-05-08T13:53:03.629Z,2.60
2023-05-08T13:55:34.373Z,2.93
2023-05-08T13:58:05.270Z,2.97
2023-05-08T14:00:36.056Z,2.83
2023-05-08T14:03:07.115Z,2.47
2023-05-08T14:05:37.956Z,2.00
2023-05-08T14:08:08.539Z,2.90
2023-05-08T14:10:40.752Z,1.40
2023-05-08T14:13:11.499Z,2.30
2023-05-08T14:15:45.276Z,4.73
2023-05-08T14:18:16.013Z,1.30
2023-05-08T14:20:51.651Z,1.00
2023-05-08T14:23:19.908Z,1.43
2023-05-08T14:25:51.147Z,1.47
2023-05-08T14:28:22.002Z,1.30
2023-05-08T14:30:52.685Z,1.43
2023-05-08T14:33:23.790Z,1.77
2023-05-08T14:35:54.501Z,1.50
2023-05-08T14:38:25.273Z,1.33
2023-05-08T14:40:56.023Z,7.87
2023-05-08T14:43:26.724Z,1.10
2023-05-08T14:45:57.406Z,2.83
2023-05-08T14:48:28.331Z,2.23
2023-05-08T14:50:59.956Z,1.17
2023-05-08T14:53:30.841Z,1.13
2023-05-08T14:56:01.692Z,1.90
2023-05-08T14:58:32.865Z,7.65
2023-05-08T15:01:03.603Z,1.13
2023-05-08T15:03:34.497Z,1.30
2023-05-08T15:06:05.690Z,3.07
2023-05-08T15:08:36.335Z,2.27
2023-05-08T15:11:06.935Z,1.80
2023-05-08T15:13:37.580Z,5.63
2023-05-08T15:16:09.081Z,14.78
2023-05-08T15:18:40.555Z,1.43
2023-05-08T15:21:11.426Z,3.30
2023-05-08T15:23:42.067Z,1.97
2023-05-08T15:26:12.747Z,1.30
2023-05-08T15:28:43.334Z,2.20
2023-05-08T15:31:14.218Z,1.50
2023-05-08T15:33:45.757Z,17.48
2023-05-08T15:36:16.773Z,1.10
2023-05-08T15:38:49.260Z,1.87
2023-05-08T15:41:20.110Z,2.80
2023-05-08T15:43:50.730Z,1.87
2023-05-08T15:46:21.436Z,2.90
2023-05-08T15:48:52.188Z,3.17
2023-05-08T15:51:22.939Z,9.63
2023-05-08T15:53:53.813Z,1.70
2023-05-08T15:56:26.890Z,2.00
2023-05-08T15:58:57.591Z,10.58
2023-05-08T16:01:28.395Z,2.70
2023-05-08T16:03:59.349Z,0.87
2023-05-08T16:06:30.091Z,1.97
2023-05-08T16:09:02.300Z,2.00
2023-05-08T16:11:34.341Z,0.60
2023-05-08T16:14:05.398Z,4.73
2023-05-08T16:16:36.333Z,2.00
2023-05-08T16:19:07.057Z,1.83
2023-05-08T16:21:37.895Z,3.90
2023-05-08T16:24:09.100Z,0.60
2023-05-08T16:26:40.048Z,1.30
2023-05-08T16:29:10.821Z,2.03
2023-05-08T16:31:41.753Z,2.50
2023-05-08T16:34:12.828Z,3.33
2023-05-08T16:36:43.476Z,0.80
2023-05-08T16:39:14.205Z,2.33
2023-05-08T16:41:44.983Z,3.30
2023-05-08T16:44:16.082Z,7.33
2023-05-08T16:46:46.723Z,13.33
2023-05-08T16:49:17.496Z,5.90
2023-05-08T16:51:48.160Z,1.47
2023-05-08T16:54:18.910Z,2.30
2023-05-08T16:56:49.640Z,2.30
2023-05-08T16:59:20.240Z,1.07
2023-05-08T17:01:50.874Z,2.00
2023-05-08T17:04:21.485Z,4.57
2023-05-08T17:06:52.195Z,1.03
2023-05-08T17:09:24.255Z,2.10
2023-05-08T17:11:55.082Z,0.73
2023-05-08T17:14:25.753Z,1.20
2023-05-08T17:16:56.494Z,1.00
2023-05-08T17:19:27.321Z,1.93
2023-05-08T17:21:59.678Z,5.70
2023-05-08T17:24:32.569Z,1.43
2023-05-08T17:27:03.867Z,0.40
2023-05-08T17:29:34.663Z,0.57
2023-05-08T17:32:06.108Z,0.60
2023-05-08T17:34:36.992Z,1.33
2023-05-08T17:37:07.755Z,1.17
2023-05-08T17:39:38.581Z,1.57
2023-05-08T17:42:09.440Z,2.50
2023-05-08T17:44:40.199Z,0.97
2023-05-08T17:47:10.882Z,0.93
2023-05-08T17:49:41.482Z,0.80
2023-05-08T17:52:12.249Z,0.77
2023-05-08T17:54:43.010Z,0.73
2023-05-08T17:57:13.605Z,0.87
2023-05-08T17:59:44.281Z,1.13
2023-05-08T18:02:15.006Z,0.77
2023-05-08T18:04:46.473Z,0.40
2023-05-08T18:07:18.139Z,2.20
2023-05-08T18:09:49.259Z,0.90
2023-05-08T18:12:20.295Z,2.00
2023-05-08T18:14:51.431Z,1.07
2023-05-08T18:17:22.832Z,1.57
2023-05-08T18:19:54.057Z,0.80
2023-05-08T18:22:24.815Z,1.40
2023-05-08T18:24:57.279Z,0.93
2023-05-08T18:27:28.440Z,1.93
2023-05-08T18:29:59.361Z,1.00
2023-05-08T18:32:30.468Z,3.97
2023-05-08T18:35:01.893Z,0.90
2023-05-08T18:37:32.781Z,1.67
2023-05-08T18:40:03.429Z,2.80
2023-05-08T18:42:34.685Z,4.93
2023-05-08T18:45:07.855Z,1.57
2023-05-08T18:47:38.487Z,0.70
2023-05-08T18:50:12.170Z,0.50
2023-05-08T18:52:43.821Z,2.00
2023-05-08T18:55:15.064Z,1.20
2023-05-08T18:57:46.310Z,0.80
2023-05-08T19:00:18.813Z,0.77
2023-05-08T19:02:50.076Z,0.80
2023-05-08T19:05:21.624Z,0.90
2023-05-08T19:07:52.972Z,1.47
2023-05-08T19:10:24.735Z,1.17
2023-05-08T19:12:55.492Z,1.97
2023-05-08T19:15:26.308Z,2.77
2023-05-08T19:17:57.574Z,1.77
2023-05-08T19:20:28.611Z,3.13
2023-05-08T19:22:59.859Z,0.97
2023-05-08T19:25:30.481Z,0.70
2023-05-08T19:28:01.604Z,0.70
2023-05-08T19:30:32.432Z,1.20
2023-05-08T19:33:03.574Z,1.13
2023-05-08T19:35:35.018Z,3.02
2023-05-08T19:38:05.968Z,0.80
2023-05-08T19:40:48.343Z,2.07
2023-05-08T19:43:09.821Z,2.60
2023-05-08T19:45:40.892Z,1.00
2023-05-08T19:48:17.894Z,1.60
2023-05-08T19:50:44.202Z,1.23
2023-05-08T19:53:15.067Z,0.77
2023-05-08T19:55:45.921Z,4.03
2023-05-08T19:58:17.917Z,2.20
2023-05-08T20:00:51.667Z,1.87
2023-05-08T20:03:21.710Z,3.80
2023-05-08T20:05:54.470Z,1.00
2023-05-08T20:08:26.306Z,2.37
2023-05-08T20:10:58.024Z,7.62
2023-05-08T20:13:29.372Z,1.60
2023-05-08T20:16:00.199Z,2.87
2023-05-08T20:18:31.566Z,1.33
2023-05-08T20:21:02.585Z,4.23
2023-05-08T20:23:33.375Z,0.60
2023-05-08T20:26:05.397Z,1.77
2023-05-08T20:28:36.344Z,2.30
2023-05-08T20:31:07.230Z,1.30
2023-05-08T20:33:38.041Z,2.63
2023-05-08T20:36:08.957Z,0.93
2023-05-08T20:38:39.711Z,2.67
2023-05-08T20:41:10.437Z,1.33
2023-05-08T20:43:41.584Z,1.00
2023-05-08T20:46:12.339Z,1.10
2023-05-08T20:48:43.348Z,1.17
2023-05-08T20:51:15.445Z,3.33
2023-05-08T20:53:46.568Z,2.30
2023-05-08T20:56:19.132Z,1.67
2023-05-08T20:58:49.854Z,0.93
2023-05-08T21:01:21.155Z,0.53
2023-05-08T21:03:52.083Z,1.90
2023-05-08T21:06:22.921Z,1.40
2023-05-08T21:08:53.613Z,0.83
2023-05-08T21:11:24.196Z,2.47
2023-05-08T21:13:54.855Z,1.73
2023-05-08T21:16:26.768Z,2.33
2023-05-08T21:21:35.185Z,0.70
2023-05-08T21:24:06.930Z,0.97
2023-05-08T21:26:37.581Z,0.60
2023-05-08T21:29:09.774Z,1.60
2023-05-08T21:31:41.581Z,1.87
2023-05-08T21:34:12.402Z,0.50
2023-05-08T21:36:43.170Z,0.70
2023-05-08T21:39:14.438Z,0.97
2023-05-08T21:41:45.789Z,3.80
2023-05-08T21:44:16.412Z,1.30
2023-05-08T21:46:47.162Z,0.57
2023-05-08T21:49:17.952Z,0.90
2023-05-08T21:51:48.586Z,2.30
2023-05-08T21:54:20.875Z,0.70
2023-05-08T21:56:51.550Z,0.50
2023-05-08T21:59:22.606Z,2.07
2023-05-08T22:01:53.880Z,2.00
2023-05-08T22:04:24.694Z,3.20
2023-05-08T22:06:55.285Z,2.40
2023-05-08T22:09:26.038Z,5.23
2023-05-08T22:11:56.799Z,2.90
2023-05-08T22:14:27.441Z,0.90
2023-05-08T22:16:58.108Z,0.90
2023-05-08T22:19:35.028Z,0.70
2023-05-08T22:22:05.825Z,1.55
2023-05-08T22:24:36.444Z,0.80
2023-05-08T22:27:07.279Z,0.80
2023-05-08T22:29:37.846Z,1.67
2023-05-08T22:32:08.916Z,0.90
2023-05-08T22:34:39.616Z,1.57
2023-05-08T22:37:10.286Z,0.80
2023-05-08T22:39:40.944Z,2.00
2023-05-08T22:42:11.847Z,1.03
2023-05-08T22:44:42.962Z,0.90
2023-05-08T22:47:14.748Z,1.17
2023-05-08T22:49:45.602Z,1.00
2023-05-08T22:52:17.272Z,3.50
2023-05-08T22:54:47.878Z,1.80
2023-05-08T22:57:18.530Z,0.77
2023-05-08T22:59:49.224Z,1.63
2023-05-08T23:02:19.878Z,0.80
2023-05-08T23:04:50.587Z,1.20
2023-05-08T23:07:21.431Z,0.70
2023-05-08T23:09:52.175Z,1.00
2023-05-08T23:12:22.771Z,1.97
2023-05-08T23:14:53.389Z,0.73
2023-05-08T23:17:24.056Z,0.90
2023-05-08T23:19:54.684Z,3.63
2023-05-08T23:22:25.517Z,1.63
2023-05-08T23:24:56.164Z,3.33
2023-05-08T23:27:26.995Z,1.20
2023-05-08T23:29:57.710Z,1.30
2023-05-08T23:32:28.432Z,1.27
2023-05-08T23:34:59.073Z,0.60
2023-05-08T23:37:29.982Z,1.17
2023-05-08T23:40:00.705Z,4.97
2023-05-08T23:42:31.421Z,1.30
2023-05-08T23:45:02.012Z,1.93
2023-05-08T23:47:32.721Z,0.70
2023-05-08T23:50:03.582Z,2.47
2023-05-08T23:52:34.251Z,1.00
2023-05-08T23:55:06.648Z,1.50
2023-05-08T23:57:37.768Z,1.93
